Time;durP1;ratioP1;P1;durP2;ratioP2;P2;SDS_P1;SDS_P2;PMS_P1;PMS_P2;Temp;Humidity;BMP_temperature;BMP_pressure;BME280_temperature;BME280_humidity;BME280_pressure;Samples;Min_cycle;Max_cycle;Signal;HPM_P1;HPM_P2
2021/11/07 00:05:24;;;;;;;7.38;3.45;;;12.70;99.90;;;;;;5045857;28;20060;-81
2021/11/07 00:13:15;;;;;;;8.15;3.30;;;12.80;99.90;;;;;;5061559;28;20049;-83
2021/11/07 00:15:45;;;;;;;11.27;4.82;;;12.80;99.90;;;;;;5056672;28;20042;-82
2021/11/07 00:18:18;;;;;;;6.47;2.95;;;12.80;99.90;;;;;;5063682;28;20053;-82
2021/11/07 00:20:54;;;;;;;6.82;2.85;;;12.80;99.90;;;;;;5095282;28;20060;-81
2021/11/07 00:23:38;;;;;;;7.63;3.15;;;12.80;99.90;;;;;;5079039;28;20051;-80
2021/11/07 00:26:26;;;;;;;8.80;3.58;;;12.80;99.90;;;;;;5075439;28;20079;-84
2021/11/07 00:29:09;;;;;;;5.63;3.33;;;12.80;99.90;;;;;;5062825;28;20055;-81
2021/11/07 00:37:00;;;;;;;6.72;2.53;;;12.70;99.90;;;;;;5062085;28;20048;-82
2021/11/07 00:42:16;;;;;;;8.32;2.60;;;11.40;99.90;;;;;;5061413;28;20322;-82
2021/11/07 00:44:58;;;;;;;10.07;3.05;;;12.50;99.90;;;;;;5096200;28;20041;-84
2021/11/07 00:47:56;;;;;;;8.55;3.10;;;12.50;99.90;;;;;;5089754;28;20049;-82
2021/11/07 00:50:40;;;;;;;9.38;4.00;;;12.70;99.90;;;;;;5079718;28;20061;-83
2021/11/07 00:58:41;;;;;;;8.53;3.07;;;12.60;99.90;;;;;;5044583;28;20069;-82
2021/11/07 01:01:14;;;;;;;7.88;2.90;;;12.60;99.90;;;;;;5060119;28;20048;-83
2021/11/07 01:03:42;;;;;;;8.60;3.72;;;12.60;99.90;;;;;;5061842;28;20052;-83
2021/11/07 01:06:11;;;;;;;7.20;3.25;;;12.70;99.90;;;;;;5049549;28;20056;-82
2021/11/07 01:08:42;;;;;;;7.28;3.97;;;12.60;99.90;;;;;;5061384;28;20059;-82
2021/11/07 01:11:12;;;;;;;13.77;4.57;;;12.60;99.90;;;;;;5062348;28;20048;-84
2021/11/07 01:13:40;;;;;;;10.25;3.17;;;12.70;99.90;;;;;;5096058;28;20049;-82
2021/11/07 01:16:13;;;;;;;7.47;2.35;;;12.60;99.90;;;;;;5088574;28;20037;-82
2021/11/07 01:18:46;;;;;;;4.97;2.40;;;12.70;99.90;;;;;;5045643;28;20041;-85
2021/11/07 01:21:17;;;;;;;;;;;12.60;99.90;;;;;;5087999;28;20045;-82
2021/11/07 01:24:00;;;;;;;5.97;3.03;;;12.70;99.90;;;;;;5054578;28;19921;-82
2021/11/07 01:26:50;;;;;;;7.20;2.95;;;12.70;99.90;;;;;;5060518;28;20053;-82
2021/11/07 01:29:23;;;;;;;6.93;3.38;;;12.10;99.90;;;;;;5054452;28;20041;-83
2021/11/07 01:31:53;;;;;;;7.40;3.17;;;12.70;99.90;;;;;;5057391;28;20052;-83
2021/11/07 01:37:17;;;;;;;11.18;4.25;;;12.70;99.90;;;;;;5054903;28;20262;-82
2021/11/07 01:42:38;;;;;;;6.72;4.07;;;12.60;99.90;;;;;;5062364;28;20056;-84
2021/11/07 01:45:32;;;;;;;5.32;3.33;;;12.60;99.90;;;;;;5059558;28;20049;-82
2021/11/07 01:48:11;;;;;;;5.57;3.53;;;12.60;99.90;;;;;;5042849;28;20063;-82
2021/11/07 01:50:56;;;;;;;8.65;3.35;;;12.60;99.90;;;;;;5060255;28;20047;-81
2021/11/07 01:53:35;;;;;;;8.82;3.20;;;12.60;99.90;;;;;;5053878;28;20056;-81
2021/11/07 01:56:10;;;;;;;8.98;3.15;;;12.60;99.90;;;;;;5060102;28;20458;-83
2021/11/07 01:58:44;;;;;;;7.10;4.25;;;12.60;99.90;;;;;;5063628;28;20053;-83
2021/11/07 02:01:20;;;;;;;6.40;3.20;;;12.60;99.90;;;;;;5056779;28;20323;-81
2021/11/07 02:03:49;;;;;;;6.90;3.28;;;12.50;99.90;;;;;;5087083;28;20063;-81
2021/11/07 02:06:19;;;;;;;11.82;3.47;;;12.60;99.90;;;;;;5040778;28;20059;-82
2021/11/07 02:08:48;;;;;;;7.25;3.20;;;12.70;99.90;;;;;;5088773;28;20049;-81
2021/11/07 02:11:24;;;;;;;9.82;2.97;;;12.50;99.90;;;;;;5057422;28;20053;-85
2021/11/07 02:13:52;;;;;;;11.40;4.15;;;12.30;99.90;;;;;;5053742;28;20044;-82
2021/11/07 02:16:24;;;;;;;12.05;4.07;;;12.40;99.90;;;;;;5042135;28;20045;-84
2021/11/07 02:18:53;;;;;;;5.65;3.35;;;12.50;99.90;;;;;;5044164;28;20056;-84
2021/11/07 02:21:30;;;;;;;10.45;3.38;;;12.30;99.90;;;;;;5059711;28;20080;-83
2021/11/07 02:24:00;;;;;;;15.13;3.42;;;12.20;99.90;;;;;;5077210;28;20049;-82
2021/11/07 02:26:29;;;;;;;12.95;3.70;;;12.20;99.90;;;;;;5060517;28;20049;-84
2021/11/07 02:29:00;;;;;;;6.10;3.05;;;12.10;99.90;;;;;;5070380;28;20037;-83
2021/11/07 02:31:28;;;;;;;10.25;3.65;;;12.10;99.90;;;;;;5057449;28;20055;-82
2021/11/07 02:33:56;;;;;;;6.60;3.05;;;12.00;99.90;;;;;;5058768;28;20052;-85
2021/11/07 02:36:24;;;;;;;14.18;4.45;;;12.00;99.90;;;;;;5051255;28;20068;-83
2021/11/07 02:38:53;;;;;;;7.30;2.95;;;10.90;99.90;;;;;;5051074;28;20041;-83
2021/11/07 02:41:21;;;;;;;17.88;5.32;;;11.80;99.90;;;;;;5095145;28;20049;-84
2021/11/07 02:43:52;;;;;;;20.45;4.78;;;11.80;99.90;;;;;;5064619;28;20040;-84
2021/11/07 02:46:22;;;;;;;11.65;3.03;;;11.80;99.90;;;;;;5065182;28;20044;-83
2021/11/07 02:49:02;;;;;;;20.05;4.00;;;11.80;99.90;;;;;;5065856;28;20051;-83
2021/11/07 02:52:00;;;;;;;15.80;3.80;;;11.70;99.90;;;;;;5051104;28;20060;-84
2021/11/07 02:54:40;;;;;;;12.25;2.92;;;11.70;99.90;;;;;;5063445;28;20029;-82
2021/11/07 02:57:14;;;;;;;26.60;5.43;;;11.70;99.90;;;;;;5058271;28;20060;-83
2021/11/07 02:59:43;;;;;;;12.73;4.35;;;11.70;99.90;;;;;;5052769;28;20044;-84
2021/11/07 03:02:12;;;;;;;11.25;3.50;;;11.60;99.90;;;;;;5064848;28;20064;-83
2021/11/07 03:04:42;;;;;;;9.20;3.35;;;11.50;99.90;;;;;;5061156;28;20447;-82
2021/11/07 03:07:10;;;;;;;13.65;2.78;;;11.60;99.90;;;;;;5057545;28;20056;-81
2021/11/07 03:09:39;;;;;;;18.73;4.07;;;11.50;99.90;;;;;;5064826;28;20482;-82
2021/11/07 03:12:09;;;;;;;19.13;3.95;;;11.40;99.90;;;;;;5065448;28;20044;-83
2021/11/07 03:14:48;;;;;;;12.85;3.33;;;11.40;99.90;;;;;;5064839;28;20055;-83
2021/11/07 03:17:20;;;;;;;9.95;4.82;;;10.50;99.90;;;;;;5098051;28;20426;-81
2021/11/07 03:19:50;;;;;;;21.77;4.85;;;11.30;99.90;;;;;;5064448;28;20041;-80
2021/11/07 03:22:27;;;;;;;15.57;3.70;;;11.20;99.90;;;;;;5064202;28;20049;-80
2021/11/07 03:24:56;;;;;;;22.48;4.22;;;11.10;99.90;;;;;;5077771;28;20059;-80
2021/11/07 03:27:31;;;;;;;17.00;3.03;;;11.10;99.90;;;;;;5042822;28;20049;-80
2021/11/07 03:30:05;;;;;;;17.48;5.90;;;11.00;99.90;;;;;;5064513;28;20041;-81
2021/11/07 03:32:37;;;;;;;20.90;4.15;;;11.00;99.90;;;;;;5065374;28;20049;-81
2021/11/07 03:35:15;;;;;;;12.43;4.38;;;10.90;99.90;;;;;;5065554;28;20049;-84
2021/11/07 03:38:04;;;;;;;22.98;6.15;;;10.90;99.90;;;;;;5039932;28;20560;-83
2021/11/07 03:40:35;;;;;;;13.65;3.70;;;10.80;99.90;;;;;;5051875;28;20057;-83
2021/11/07 03:43:09;;;;;;;15.27;3.63;;;10.00;99.90;;;;;;5060150;28;20063;-83
2021/11/07 03:45:41;;;;;;;10.77;3.40;;;10.80;99.90;;;;;;5044835;28;20036;-87
2021/11/07 03:48:15;;;;;;;18.42;4.25;;;10.70;99.90;;;;;;5094204;28;20060;-84
2021/11/07 03:50:45;;;;;;;14.25;3.50;;;10.70;99.90;;;;;;5059312;28;20049;-82
2021/11/07 03:53:16;;;;;;;16.80;3.47;;;10.70;99.90;;;;;;5064619;28;20052;-85
2021/11/07 03:55:45;;;;;;;14.32;3.05;;;10.60;99.90;;;;;;5065007;28;20057;-83
2021/11/07 03:58:16;;;;;;;18.80;4.55;;;10.60;99.90;;;;;;5059335;28;20525;-83
2021/11/07 04:00:45;;;;;;;17.15;3.50;;;10.60;99.90;;;;;;5075298;28;20041;-80
2021/11/07 04:03:15;;;;;;;22.15;6.18;;;9.70;99.90;;;;;;5053399;28;20047;-80
2021/11/07 04:05:43;;;;;;;11.52;4.13;;;10.50;99.90;;;;;;5055267;28;20044;-80
2021/11/07 04:08:12;;;;;;;9.20;3.72;;;10.50;99.90;;;;;;5096415;28;20063;-79
2021/11/07 04:10:40;;;;;;;14.20;3.70;;;10.50;99.90;;;;;;5064566;28;20051;-80
2021/11/07 04:13:16;;;;;;;15.95;3.28;;;10.40;99.90;;;;;;5047152;28;20064;-82
2021/11/07 04:15:45;;;;;;;13.75;3.78;;;10.40;99.90;;;;;;5052008;28;20041;-81
2021/11/07 04:18:13;;;;;;;16.83;4.82;;;10.40;99.90;;;;;;5063303;28;20047;-79
2021/11/07 04:20:42;;;;;;;15.45;4.38;;;10.30;99.90;;;;;;5046803;28;20525;-80
2021/11/07 04:23:10;;;;;;;14.70;3.58;;;10.30;99.90;;;;;;5065462;28;20193;-79
2021/11/07 04:25:38;;;;;;;17.35;3.58;;;10.20;99.90;;;;;;5044688;28;20052;-79
2021/11/07 04:28:07;;;;;;;14.88;3.03;;;10.20;99.90;;;;;;5077754;28;20231;-79
2021/11/07 04:30:35;;;;;;;17.33;4.45;;;10.20;99.90;;;;;;5060613;28;20045;-80
2021/11/07 04:33:05;;;;;;;18.83;4.25;;;9.70;99.90;;;;;;5053839;28;20053;-80
2021/11/07 04:35:33;;;;;;;13.38;4.35;;;10.10;99.90;;;;;;5093239;28;20041;-80
2021/11/07 04:38:02;;;;;;;15.48;4.20;;;10.10;99.90;;;;;;5030791;28;20061;-81
2021/11/07 04:40:33;;;;;;;18.48;3.78;;;10.10;99.90;;;;;;5062850;28;20036;-83
2021/11/07 04:43:02;;;;;;;18.63;4.15;;;10.10;99.90;;;;;;5055716;28;20071;-80
2021/11/07 04:45:31;;;;;;;22.35;3.75;;;10.00;99.90;;;;;;5096081;28;20041;-82
2021/11/07 04:48:01;;;;;;;10.20;3.72;;;10.00;99.90;;;;;;5051151;28;20056;-81
2021/11/07 04:50:30;;;;;;;13.88;3.50;;;10.00;99.90;;;;;;5061349;28;20045;-80
2021/11/07 04:53:02;;;;;;;23.52;5.45;;;9.90;99.90;;;;;;5063247;28;20037;-80
2021/11/07 04:55:32;;;;;;;14.93;5.80;;;10.00;99.90;;;;;;5063789;28;20049;-80
2021/11/07 04:58:05;;;;;;;12.32;3.80;;;9.90;99.90;;;;;;5063698;28;20051;-80
2021/11/07 05:00:35;;;;;;;13.20;3.92;;;9.80;99.90;;;;;;5064647;28;20045;-82
2021/11/07 05:03:05;;;;;;;12.45;3.35;;;9.90;99.90;;;;;;5063450;28;20048;-82
2021/11/07 05:05:34;;;;;;;15.85;3.58;;;9.80;99.90;;;;;;5079831;28;20041;-82
2021/11/07 05:08:03;;;;;;;7.25;3.25;;;9.80;99.90;;;;;;5051709;28;20049;-79
2021/11/07 05:10:33;;;;;;;21.30;5.90;;;9.80;99.90;;;;;;5094941;28;20059;-80
2021/11/07 05:13:02;;;;;;;24.30;3.90;;;9.30;99.90;;;;;;5061021;28;20052;-80
2021/11/07 05:15:32;;;;;;;14.23;3.63;;;9.70;99.90;;;;;;5063968;28;20048;-79
2021/11/07 05:18:01;;;;;;;11.65;3.47;;;9.70;99.90;;;;;;5066004;28;20044;-80
2021/11/07 05:20:30;;;;;;;16.77;4.82;;;9.70;99.90;;;;;;5062473;28;20679;-80
2021/11/07 05:22:58;;;;;;;11.02;3.13;;;9.70;99.90;;;;;;5055314;28;20053;-81
2021/11/07 05:25:26;;;;;;;17.08;5.47;;;9.70;99.90;;;;;;5076196;28;20076;-79
2021/11/07 05:27:54;;;;;;;23.90;4.65;;;9.70;99.90;;;;;;5078301;28;20055;-79
2021/11/07 05:30:22;;;;;;;14.23;5.18;;;9.70;99.90;;;;;;5090255;28;20041;-80
2021/11/07 05:32:51;;;;;;;8.77;3.95;;;9.70;99.90;;;;;;5062981;28;20053;-80
2021/11/07 05:35:20;;;;;;;25.70;4.93;;;9.60;99.90;;;;;;5046230;28;20037;-80
2021/11/07 05:37:50;;;;;;;18.05;4.18;;;9.60;99.90;;;;;;5093832;28;20057;-79
2021/11/07 05:40:19;;;;;;;14.65;4.57;;;9.60;99.90;;;;;;5062219;28;20041;-79
2021/11/07 05:42:48;;;;;;;21.33;3.65;;;9.50;99.90;;;;;;5053748;28;20064;-80
2021/11/07 05:45:18;;;;;;;17.02;4.45;;;9.50;99.90;;;;;;5079252;28;20532;-79
2021/11/07 05:48:06;;;;;;;19.48;4.30;;;9.40;99.90;;;;;;5066208;28;20063;-83
2021/11/07 05:50:35;;;;;;;11.52;4.32;;;9.40;99.90;;;;;;5060318;28;20059;-83
2021/11/07 05:53:05;;;;;;;25.40;5.20;;;9.40;99.90;;;;;;5060425;28;20048;-79
2021/11/07 05:55:33;;;;;;;17.85;4.45;;;9.40;99.90;;;;;;5060924;28;20052;-83
2021/11/07 05:58:03;;;;;;;16.45;4.55;;;9.30;99.90;;;;;;5057342;28;20049;-81
2021/11/07 06:00:32;;;;;;;16.98;5.45;;;9.30;99.90;;;;;;5060254;28;20052;-80
2021/11/07 06:03:06;;;;;;;15.20;4.15;;;9.30;99.90;;;;;;5073613;28;20058;-79
2021/11/07 06:05:36;;;;;;;13.32;4.63;;;9.30;99.90;;;;;;5054718;28;20052;-81
2021/11/07 06:08:05;;;;;;;22.65;3.95;;;9.30;99.90;;;;;;5048490;28;20044;-80
2021/11/07 06:10:36;;;;;;;11.98;3.22;;;9.20;99.90;;;;;;5060362;28;20053;-81
2021/11/07 06:13:12;;;;;;;23.15;4.18;;;9.30;99.90;;;;;;5075302;28;20036;-80
2021/11/07 06:15:44;;;;;;;18.48;5.00;;;9.20;99.90;;;;;;5069703;28;20050;-80
2021/11/07 06:18:13;;;;;;;15.50;4.88;;;9.20;99.90;;;;;;5061187;28;20045;-80
2021/11/07 06:20:42;;;;;;;14.80;3.42;;;9.20;99.90;;;;;;5060164;28;20045;-82
2021/11/07 06:23:25;;;;;;;21.38;4.53;;;9.10;99.90;;;;;;5058521;28;20044;-79
2021/11/07 06:25:53;;;;;;;21.05;3.35;;;9.10;99.90;;;;;;5093843;28;20049;-80
2021/11/07 06:28:22;;;;;;;22.33;3.33;;;9.00;99.90;;;;;;5061539;28;20041;-81
2021/11/07 06:30:59;;;;;;;11.40;3.83;;;9.10;99.90;;;;;;5062374;28;20055;-81
2021/11/07 06:33:33;;;;;;;12.82;3.80;;;9.00;99.90;;;;;;4697928;28;9999849;-80
2021/11/07 06:36:03;;;;;;;18.17;6.15;;;8.90;99.90;;;;;;5038656;28;20053;-82
2021/11/07 06:38:37;;;;;;;19.52;6.18;;;8.90;99.90;;;;;;5060337;28;20391;-81
2021/11/07 06:41:07;;;;;;;17.75;3.85;;;8.90;99.90;;;;;;5061071;28;20059;-83
2021/11/07 06:43:41;;;;;;;18.95;5.60;;;8.90;99.90;;;;;;5047656;28;20209;-86
2021/11/07 06:46:10;;;;;;;18.60;4.40;;;8.90;99.90;;;;;;5056551;28;20045;-82
2021/11/07 06:48:41;;;;;;;13.88;5.07;;;8.90;99.90;;;;;;5064496;28;20059;-82
2021/11/07 06:51:11;;;;;;;;;;;8.80;99.90;;;;;;5061361;28;20045;-81
2021/11/07 06:53:59;;;;;;;19.02;3.38;;;8.80;99.90;;;;;;5054255;28;19920;-82
2021/11/07 06:56:27;;;;;;;16.30;4.03;;;8.80;99.90;;;;;;5059874;28;20056;-82
2021/11/07 06:58:57;;;;;;;20.90;4.68;;;8.70;99.90;;;;;;5048588;28;20060;-84
2021/11/07 07:01:30;;;;;;;17.45;3.95;;;8.80;99.90;;;;;;5191939;22;20049;-80
2021/11/07 07:03:59;;;;;;;26.35;5.00;;;8.90;99.90;;;;;;5040185;28;20056;-82
2021/11/07 07:06:28;;;;;;;25.63;7.32;;;8.70;99.90;;;;;;5047224;28;20052;-79
2021/11/07 07:09:08;;;;;;;13.63;4.45;;;8.70;99.90;;;;;;5079225;28;20056;-82
2021/11/07 07:14:17;;;;;;;13.98;3.65;;;8.70;99.90;;;;;;5090946;28;20060;-80
2021/11/07 07:28:11;;;;;;;23.83;6.13;;;8.70;99.90;;;;;;5073014;28;20044;-80
2021/11/07 07:33:57;;;;;;;30.77;7.95;;;9.20;99.90;;;;;;5064206;28;20047;-82
2021/11/07 07:36:26;;;;;;;20.20;4.60;;;8.70;99.90;;;;;;5046891;28;20053;-82
2021/11/07 07:39:01;;;;;;;14.23;5.18;;;8.70;99.90;;;;;;5067082;28;20057;-82
2021/11/07 07:41:42;;;;;;;19.70;5.65;;;8.70;99.90;;;;;;5045464;28;20634;-83
2021/11/07 07:44:11;;;;;;;15.13;5.57;;;9.30;99.90;;;;;;5049324;28;20044;-80
2021/11/07 07:46:42;;;;;;;13.63;4.68;;;8.70;99.90;;;;;;5069605;28;20041;-81
2021/11/07 07:49:14;;;;;;;16.30;5.25;;;8.70;99.90;;;;;;5033035;28;20045;-83
2021/11/07 07:51:49;;;;;;;32.80;8.32;;;8.80;99.90;;;;;;5075504;28;20057;-82
2021/11/07 07:54:24;;;;;;;19.13;5.22;;;9.00;99.90;;;;;;5073663;28;20045;-81
2021/11/07 07:56:52;;;;;;;18.00;6.40;;;8.80;99.90;;;;;;5045773;28;20057;-81
2021/11/07 07:59:20;;;;;;;14.48;3.88;;;8.80;99.90;;;;;;5064178;28;20069;-82
2021/11/07 08:01:52;;;;;;;13.90;3.90;;;8.80;99.90;;;;;;5065566;28;20489;-86
2021/11/07 08:04:57;;;;;;;26.27;5.93;;;8.90;99.90;;;;;;5061627;28;20076;-82
2021/11/07 08:07:47;;;;;;;13.48;5.10;;;8.90;99.90;;;;;;5044801;28;20045;-81
2021/11/07 08:10:16;;;;;;;29.00;7.25;;;9.00;99.90;;;;;;5044319;28;20049;-79
2021/11/07 08:12:44;;;;;;;18.50;3.95;;;8.90;99.90;;;;;;5063816;28;20040;-79
2021/11/07 08:15:15;;;;;;;17.58;4.40;;;8.90;99.90;;;;;;5045767;28;20056;-81
2021/11/07 08:17:46;;;;;;;19.45;4.35;;;8.90;99.90;;;;;;5048266;28;20051;-82
2021/11/07 08:20:19;;;;;;;13.70;5.50;;;8.90;99.90;;;;;;5049152;28;20060;-78
2021/11/07 08:22:54;;;;;;;16.17;7.25;;;9.00;99.90;;;;;;5066372;28;20053;-80
2021/11/07 08:25:25;;;;;;;32.10;6.68;;;9.00;99.90;;;;;;5070672;28;20047;-82
2021/11/07 08:28:00;;;;;;;28.90;4.65;;;8.90;99.90;;;;;;5044909;28;20041;-79
2021/11/07 08:30:33;;;;;;;23.30;5.13;;;9.10;99.90;;;;;;5058594;28;20045;-81
2021/11/07 08:33:02;;;;;;;20.00;5.13;;;9.00;99.90;;;;;;5030189;28;20045;-81
2021/11/07 08:35:31;;;;;;;18.60;4.80;;;9.10;99.90;;;;;;5060440;28;20044;-80
2021/11/07 08:38:33;;;;;;;25.15;7.13;;;9.10;99.90;;;;;;5063746;28;20041;-80
2021/11/07 08:41:07;;;;;;;12.65;4.28;;;9.80;99.90;;;;;;5062562;28;20051;-83
2021/11/07 09:00:28;;;;;;;13.32;4.65;;;9.70;99.90;;;;;;5067779;28;20068;-81
2021/11/07 09:08:26;;;;;;;17.63;4.38;;;9.90;99.90;;;;;;5021108;28;20067;-84
2021/11/07 09:10:58;;;;;;;13.90;3.95;;;9.90;99.90;;;;;;5067945;28;20040;-82
2021/11/07 09:13:29;;;;;;;12.48;4.43;;;9.90;99.90;;;;;;5030252;28;20409;-81
2021/11/07 09:15:58;;;;;;;19.55;6.80;;;10.00;99.90;;;;;;5045895;28;20049;-82
2021/11/07 09:18:43;;;;;;;14.15;4.00;;;10.00;99.90;;;;;;5068590;28;20048;-80
2021/11/07 09:21:25;;;;;;;19.13;5.90;;;10.10;99.90;;;;;;5045371;28;20055;-80
2021/11/07 09:24:00;;;;;;;20.00;3.58;;;10.70;99.90;;;;;;5044548;28;20060;-82
2021/11/07 09:26:43;;;;;;;14.55;5.13;;;10.10;99.90;;;;;;5061841;28;20476;-81
2021/11/07 09:29:25;;;;;;;17.10;4.03;;;10.20;99.90;;;;;;5041084;28;20055;-81
2021/11/07 09:34:41;;;;;;;19.73;4.80;;;10.00;99.90;;;;;;5059219;28;20052;-81
2021/11/07 09:37:50;;;;;;;15.02;4.00;;;10.40;99.90;;;;;;5063840;28;20048;-83
2021/11/07 09:40:15;;;;;;;12.32;3.85;;;10.50;99.90;;;;;;5063474;28;20045;-81
2021/11/07 09:45:25;;;;;;;17.10;6.32;;;10.50;99.90;;;;;;5080635;28;20052;-82
2021/11/07 09:48:06;;;;;;;20.08;5.65;;;9.70;99.90;;;;;;5058262;28;20047;-82
2021/11/07 09:50:41;;;;;;;23.63;4.47;;;10.80;99.90;;;;;;5054337;28;20040;-80
2021/11/07 09:53:13;;;;;;;20.00;5.72;;;10.80;99.90;;;;;;5032754;28;20144;-82
2021/11/07 09:55:46;;;;;;;14.82;3.45;;;10.70;99.90;;;;;;5067717;28;20049;-82
2021/11/07 09:58:21;;;;;;;23.63;4.55;;;10.80;99.90;;;;;;5068089;28;20041;-84
2021/11/07 10:01:00;;;;;;;19.05;4.40;;;10.90;99.90;;;;;;5062578;28;20049;-81
2021/11/07 10:03:31;;;;;;;23.58;4.38;;;11.10;99.90;;;;;;5082638;28;20053;-82
2021/11/07 10:06:52;;;;;;;27.10;7.35;;;11.00;99.90;;;;;;5048480;28;20059;-81
2021/11/07 10:09:39;;;;;;;21.25;4.90;;;11.40;99.90;;;;;;5174996;22;20049;-81
2021/11/07 10:12:16;;;;;;;22.80;3.85;;;11.20;99.90;;;;;;5045544;28;20048;-81
2021/11/07 10:14:57;;;;;;;30.27;5.78;;;11.30;99.90;;;;;;5056172;28;20051;-80
2021/11/07 10:17:38;;;;;;;18.25;5.57;;;11.40;99.90;;;;;;5046216;28;20037;-82
2021/11/07 10:22:49;;;;;;;20.00;4.05;;;11.50;99.90;;;;;;5064084;28;20059;-80
2021/11/07 10:25:26;;;;;;;15.40;6.32;;;11.60;99.90;;;;;;5057286;28;20045;-83
2021/11/07 10:27:59;;;;;;;21.27;5.70;;;11.70;99.90;;;;;;5083964;28;20044;-85
2021/11/07 10:30:31;;;;;;;22.45;5.53;;;11.80;99.90;;;;;;5052266;28;20286;-82
2021/11/07 10:33:07;;;;;;;17.88;4.32;;;11.80;99.90;;;;;;5067304;28;20037;-80
2021/11/07 10:45:04;;;;;;;15.18;3.33;;;12.00;99.90;;;;;;5066877;28;20044;-80
2021/11/07 10:53:23;;;;;;;10.98;4.57;;;12.00;99.90;;;;;;5064220;28;20048;-80
2021/11/07 10:55:55;;;;;;;18.30;5.88;;;12.00;99.70;;;;;;5066732;28;20044;-82
2021/11/07 10:58:36;;;;;;;28.67;5.85;;;12.00;99.90;;;;;;5048413;28;20670;-83
2021/11/07 11:01:10;;;;;;;18.73;4.25;;;12.00;99.90;;;;;;5066010;28;20059;-83
2021/11/07 11:03:44;;;;;;;21.48;4.85;;;12.00;99.90;;;;;;5079925;28;20300;-83
2021/11/07 11:06:14;;;;;;;28.27;6.00;;;12.10;99.90;;;;;;5074727;28;20033;-82
2021/11/07 11:09:17;;;;;;;20.60;5.55;;;12.00;99.90;;;;;;5071266;28;20071;-81
2021/11/07 11:14:25;;;;;;;15.85;5.93;;;12.10;99.70;;;;;;5034387;28;20064;-79
2021/11/07 11:17:09;;;;;;;17.30;5.00;;;12.00;99.90;;;;;;5026756;28;20046;-80
2021/11/07 11:19:59;;;;;;;23.73;4.15;;;12.10;99.40;;;;;;5046019;28;20041;-79
2021/11/07 11:22:52;;;;;;;22.27;5.82;;;12.00;99.40;;;;;;5057071;28;20038;-79
2021/11/07 11:36:11;;;;;;;11.32;3.83;;;11.50;98.80;;;;;;5049632;28;20268;-81
2021/11/07 11:41:28;;;;;;;44.13;6.47;;;12.30;99.40;;;;;;5025696;28;20056;-82
2021/11/07 11:43:56;;;;;;;19.83;4.68;;;12.40;98.80;;;;;;5040986;28;20053;-82
2021/11/07 11:46:55;;;;;;;18.23;4.50;;;12.50;98.40;;;;;;5034416;28;20049;-82
2021/11/07 11:55:13;;;;;;;17.27;5.43;;;12.80;98.30;;;;;;5049106;28;20054;-82
2021/11/07 12:03:19;;;;;;;16.60;3.70;;;13.00;98.00;;;;;;5034236;28;20049;-81
2021/11/07 12:06:11;;;;;;;23.02;5.00;;;13.10;97.60;;;;;;5037826;28;20048;-85
2021/11/07 12:08:57;;;;;;;11.43;3.67;;;13.10;97.20;;;;;;5036233;28;20041;-81
2021/11/07 12:14:15;;;;;;;23.98;4.68;;;13.10;97.10;;;;;;5038119;28;20045;-81
2021/11/07 12:16:57;;;;;;;26.67;5.85;;;13.20;97.10;;;;;;5056721;28;20224;-82
2021/11/07 12:19:43;;;;;;;18.17;3.25;;;13.10;96.40;;;;;;5058459;28;20037;-83
2021/11/07 12:22:46;;;;;;;;;;;;;;;;;;;;;
2021/11/07 12:25:30;;;;;;;18.20;4.07;;;13.10;97.00;;;;;;5045773;28;20063;-83
2021/11/07 12:28:01;;;;;;;16.92;4.82;;;13.10;97.10;;;;;;5072981;28;20138;-83
2021/11/07 12:30:32;;;;;;;13.05;4.47;;;13.10;96.80;;;;;;5043085;28;20056;-83
2021/11/07 12:33:22;;;;;;;20.42;4.57;;;13.60;96.40;;;;;;5061183;28;20037;-84
2021/11/07 12:41:25;;;;;;;16.15;3.65;;;14.70;96.80;;;;;;5040000;28;20080;-81
2021/11/07 12:44:01;;;;;;;20.42;4.28;;;13.30;96.50;;;;;;5056142;28;20402;-82
2021/11/07 12:49:26;;;;;;;16.53;5.47;;;13.40;96.30;;;;;;5055732;28;20049;-84
2021/11/07 12:52:07;;;;;;;18.25;4.55;;;13.20;96.40;;;;;;5070427;28;20308;-82
2021/11/07 12:54:37;;;;;;;17.85;3.38;;;13.20;96.80;;;;;;5057086;28;20037;-82
2021/11/07 12:57:10;;;;;;;20.50;4.35;;;13.20;96.60;;;;;;5038731;28;20080;-84
2021/11/07 12:59:46;;;;;;;28.00;8.93;;;13.20;96.60;;;;;;5053228;28;20051;-81
2021/11/07 13:02:49;;;;;;;19.40;6.05;;;13.20;96.70;;;;;;5058525;28;20041;-81
2021/11/07 13:05:30;;;;;;;18.13;4.38;;;13.10;96.50;;;;;;5017168;28;20044;-83
2021/11/07 13:08:05;;;;;;;23.13;5.47;;;13.10;96.60;;;;;;5061488;28;20064;-84
2021/11/07 13:10:59;;;;;;;24.13;6.20;;;13.10;96.30;;;;;;5062454;28;20040;-81
2021/11/07 13:14:00;;;;;;;20.20;4.75;;;13.10;96.40;;;;;;5044331;28;20052;-81
2021/11/07 13:17:06;;;;;;;19.67;5.43;;;13.10;96.50;;;;;;5057593;28;20048;-82
2021/11/07 13:20:30;;;;;;;11.43;3.35;;;13.10;96.30;;;;;;5035504;28;20049;-82
2021/11/07 13:28:44;;;;;;;24.23;3.95;;;13.10;96.10;;;;;;4997235;28;20042;-82
2021/11/07 13:31:18;;;;;;;15.02;4.20;;;13.20;96.00;;;;;;5051656;28;20071;-82
2021/11/07 13:34:18;;;;;;;16.90;5.57;;;13.20;95.90;;;;;;5076974;28;20052;-86
2021/11/07 13:36:50;;;;;;;24.63;4.68;;;13.20;96.00;;;;;;5060978;28;20056;-85
2021/11/07 13:40:14;;;;;;;14.82;3.50;;;12.50;95.40;;;;;;5150171;22;20037;-81
2021/11/07 13:42:43;;;;;;;21.83;6.95;;;13.20;95.20;;;;;;5056142;28;20052;-82
2021/11/07 13:45:27;;;;;;;20.00;6.05;;;13.10;95.60;;;;;;5060034;28;20044;-82
2021/11/07 13:48:04;;;;;;;13.35;3.35;;;13.20;95.30;;;;;;5059379;28;20063;-84
2021/11/07 13:50:34;;;;;;;15.25;4.78;;;13.20;95.30;;;;;;5069686;28;20471;-85
2021/11/07 13:53:07;;;;;;;16.17;4.22;;;13.10;95.90;;;;;;5061273;28;20057;-83
2021/11/07 13:55:57;;;;;;;14.23;3.33;;;13.10;95.40;;;;;;5214880;22;20059;-83
2021/11/07 13:58:34;;;;;;;22.48;3.88;;;13.20;95.10;;;;;;5083054;28;20040;-83
2021/11/07 14:01:06;;;;;;;30.67;4.57;;;13.20;95.50;;;;;;5099151;28;20328;-85
2021/11/07 14:03:35;;;;;;;14.65;4.28;;;13.10;95.50;;;;;;5051052;28;20048;-83
2021/11/07 14:06:38;;;;;;;23.00;4.90;;;13.20;95.50;;;;;;5096148;28;20054;-83
2021/11/07 14:09:10;;;;;;;14.38;3.20;;;13.30;95.20;;;;;;5093128;28;20148;-81
2021/11/07 14:11:48;;;;;;;18.42;3.63;;;13.30;95.20;;;;;;5066016;28;20043;-86
2021/11/07 14:14:23;;;;;;;18.50;3.83;;;13.30;95.30;;;;;;5077620;28;20360;-87
2021/11/07 14:16:59;;;;;;;;;;;13.30;95.50;;;;;;5095451;28;20051;-83
2021/11/07 14:19:34;;;;;;;22.33;5.45;;;13.30;95.20;;;;;;5085392;28;20346;-85
2021/11/07 14:22:14;;;;;;;16.13;4.05;;;13.30;96.00;;;;;;5083617;28;20050;-83
2021/11/07 14:24:49;;;;;;;13.93;3.35;;;13.20;94.80;;;;;;5091881;28;20067;-84
2021/11/07 14:27:30;;;;;;;17.70;5.03;;;13.20;95.50;;;;;;5105444;28;20250;-83
2021/11/07 14:30:22;;;;;;;12.13;3.72;;;13.20;95.60;;;;;;5077436;28;20054;-83
2021/11/07 14:35:49;;;;;;;16.02;4.45;;;13.10;95.40;;;;;;5062793;28;20047;-82
2021/11/07 14:38:28;;;;;;;18.02;5.43;;;13.10;95.20;;;;;;5085027;28;20045;-84
2021/11/07 14:41:06;;;;;;;19.42;4.10;;;13.10;95.80;;;;;;5085591;28;20056;-84
2021/11/07 14:43:51;;;;;;;18.05;5.63;;;13.00;95.60;;;;;;5098880;28;20036;-85
2021/11/07 14:46:40;;;;;;;17.35;5.15;;;13.10;96.10;;;;;;5081840;28;20055;-86
2021/11/07 14:49:39;;;;;;;15.60;5.03;;;13.00;95.80;;;;;;5086910;28;20052;-82
2021/11/07 14:55:39;;;;;;;16.50;4.43;;;13.00;95.80;;;;;;5038276;28;20055;-83
2021/11/07 14:58:42;;;;;;;17.33;5.05;;;12.90;95.20;;;;;;5075886;28;20051;-84
2021/11/07 15:04:36;;;;;;;13.55;3.85;;;13.10;95.60;;;;;;5099686;28;20042;-84
2021/11/07 15:07:12;;;;;;;19.90;5.90;;;13.10;95.20;;;;;;5078427;28;20040;-85
2021/11/07 15:24:51;;;;;;;21.00;4.90;;;12.50;95.80;;;;;;5080469;28;20032;-83
2021/11/07 15:27:29;;;;;;;11.60;3.63;;;12.40;96.40;;;;;;5101976;28;20036;-83
2021/11/07 15:30:53;;;;;;;18.63;4.00;;;12.40;95.90;;;;;;5098382;28;20035;-84
2021/11/07 15:33:50;;;;;;;23.80;4.75;;;11.70;96.10;;;;;;5093488;28;20048;-84
2021/11/07 15:36:42;;;;;;;25.67;5.23;;;12.20;96.30;;;;;;5095752;28;20050;-84
2021/11/07 15:39:44;;;;;;;24.67;4.97;;;12.20;96.20;;;;;;5095946;28;20055;-85
2021/11/07 15:42:19;;;;;;;17.73;5.50;;;12.00;96.90;;;;;;5091549;28;20049;-85
2021/11/07 15:44:52;;;;;;;25.90;8.25;;;12.10;96.60;;;;;;5095064;28;20062;-85
2021/11/07 15:47:25;;;;;;;22.15;5.53;;;12.00;96.90;;;;;;5103469;28;20067;-83
2021/11/07 15:50:09;;;;;;;16.52;4.68;;;12.00;96.70;;;;;;5093787;28;20044;-83
2021/11/07 15:55:50;;;;;;;23.60;5.63;;;12.00;96.50;;;;;;5081682;28;20047;-84
2021/11/07 15:58:52;;;;;;;28.08;5.40;;;11.90;96.50;;;;;;5098858;28;20036;-83
2021/11/07 16:04:33;;;;;;;22.15;4.90;;;11.80;96.90;;;;;;5095439;28;20067;-83
2021/11/07 16:12:38;;;;;;;17.60;5.10;;;11.60;96.90;;;;;;5091346;28;20047;-82
2021/11/07 16:15:21;;;;;;;18.40;4.13;;;11.50;97.00;;;;;;5089924;28;20055;-81
2021/11/07 16:18:05;;;;;;;27.88;5.88;;;11.50;97.20;;;;;;5078931;28;20776;-81
2021/11/07 16:20:33;;;;;;;22.58;5.78;;;11.40;97.40;;;;;;5095118;28;20044;-82